Time;durP1;ratioP1;P1;durP2;ratioP2;P2;SDS_P1;SDS_P2;PMS_P1;PMS_P2;Temp;Humidity;BMP_temperature;BMP_pressure;BME280_temperature;BME280_humidity;BME280_pressure;Samples;Min_cycle;Max_cycle;Signal;HPM_P1;HPM_P2
2022/01/14 00:00:29;;;;;;;8.33;7.56;;;;;;;-4.66;76.12;100494.22;472920;111;923021;-74
2022/01/14 00:01:32;;;;;;;8.86;8.04;;;;;;;-4.65;76.10;100488.79;472900;111;922613;-74
2022/01/14 00:02:35;;;;;;;9.88;9.02;;;;;;;-4.64;76.05;100497.63;473160;110;922572;-74
2022/01/14 00:03:38;;;;;;;9.92;9.01;;;;;;;-4.63;76.03;100505.45;473447;111;923186;-74
2022/01/14 00:04:42;;;;;;;9.06;8.27;;;;;;;-4.62;76.03;100504.50;474050;110;922636;-74
2022/01/14 00:05:45;;;;;;;9.62;8.78;;;;;;;-4.60;76.01;100514.17;473280;110;923180;-74
2022/01/14 00:06:49;;;;;;;9.43;8.52;;;;;;;-4.59;75.95;100519.38;473023;110;922678;-77
2022/01/14 00:07:52;;;;;;;10.08;9.12;;;;;;;-4.58;75.92;100522.89;473586;110;922597;-78
2022/01/14 00:09:04;;;;;;;9.95;9.08;;;;;;;-4.58;75.99;100523.75;468170;112;922632;-75
2022/01/14 00:10:01;;;;;;;9.52;8.62;;;;;;;-4.57;76.00;100533.39;467743;111;922707;-73
2022/01/14 00:11:14;;;;;;;9.78;8.79;;;;;;;-4.55;75.98;100535.95;473243;110;922520;-74
2022/01/14 00:12:15;;;;;;;9.92;9.04;;;;;;;-4.54;75.99;100537.64;472594;111;922716;-74
2022/01/14 00:13:46;;;;;;;9.77;8.89;;;;;;;-4.53;76.00;100510.08;473558;111;922632;-74
2022/01/14 00:14:45;;;;;;;9.83;8.95;;;;;;;-4.52;76.01;100503.80;470921;111;922798;-75
2022/01/14 00:15:47;;;;;;;9.64;8.79;;;;;;;-4.51;76.01;100505.46;472768;110;922610;-74
2022/01/14 00:16:51;;;;;;;10.03;9.14;;;;;;;-4.50;76.05;100507.16;473278;111;922436;-74
2022/01/14 00:17:54;;;;;;;10.70;9.71;;;;;;;-4.52;76.06;100504.61;473602;109;930653;-74
2022/01/14 00:18:58;;;;;;;10.94;9.99;;;;;;;-4.53;76.06;100508.27;472228;110;922726;-74
2022/01/14 00:20:01;;;;;;;11.44;10.48;;;;;;;-4.53;76.09;100504.76;474078;111;922345;-73
2022/01/14 00:21:04;;;;;;;11.81;10.71;;;;;;;-4.54;76.11;100506.56;474305;110;922758;-73
2022/01/14 00:22:14;;;;;;;10.35;9.45;;;;;;;-4.54;76.16;100490.60;473128;111;922633;-74
2022/01/14 00:23:17;;;;;;;11.19;10.19;;;;;;;-4.54;76.16;100468.47;472722;110;922593;-74
2022/01/14 00:32:15;;;;;;;11.13;10.19;;;;;;;-4.48;76.37;100460.85;473172;110;922676;-75
2022/01/14 00:33:16;;;;;;;10.37;9.49;;;;;;;-4.47;76.34;100459.05;473606;111;922519;-74
2022/01/14 00:34:20;;;;;;;11.52;10.49;;;;;;;-4.47;76.43;100451.06;473265;110;923161;-74
2022/01/14 00:35:23;;;;;;;12.91;9.99;;;;;;;-4.47;76.45;100443.92;473377;110;922763;-74
2022/01/14 00:36:27;;;;;;;11.24;10.26;;;;;;;-4.47;76.49;100443.08;473036;111;923323;-74
2022/01/14 00:37:30;;;;;;;11.46;10.44;;;;;;;-4.47;76.46;100443.92;472861;111;922586;-74
2022/01/14 00:38:34;;;;;;;11.43;10.50;;;;;;;-4.47;76.44;100443.92;473229;110;922517;-74
2022/01/14 00:39:37;;;;;;;11.73;10.78;;;;;;;-4.46;76.54;100444.74;473284;110;922723;-75
2022/01/14 00:40:41;;;;;;;10.91;9.95;;;;;;;-4.45;76.56;100441.12;473585;110;922659;-74
2022/01/14 00:41:44;;;;;;;10.48;9.41;;;;;;;-4.45;76.55;100444.63;473319;111;923024;-74
2022/01/14 00:42:49;;;;;;;11.69;10.65;;;;;;;-4.44;76.60;100451.65;473766;109;922740;-73
2022/01/14 00:43:59;;;;;;;11.26;9.85;;;;;;;-4.43;76.66;100445.36;473075;111;922430;-74
2022/01/14 00:44:58;;;;;;;13.01;11.58;;;;;;;-4.41;76.72;100438.09;472946;110;922458;-74
2022/01/14 00:46:02;;;;;;;10.70;9.78;;;;;;;-4.40;76.70;100428.29;473820;111;922622;-74
2022/01/14 00:47:05;;;;;;;11.57;10.58;;;;;;;-4.39;76.64;100419.34;473336;110;930482;-75
2022/01/14 00:48:09;;;;;;;11.72;10.62;;;;;;;-4.38;76.67;100424.55;473022;111;930311;-75
2022/01/14 00:49:14;;;;;;;10.78;9.87;;;;;;;-4.36;76.67;100411.13;473515;111;922455;-76
2022/01/14 00:50:19;;;;;;;11.37;10.44;;;;;;;-4.34;76.66;100414.49;473740;111;930070;-74
2022/01/14 00:51:23;;;;;;;11.61;10.59;;;;;;;-4.33;76.64;100410.87;465665;112;923118;-76
2022/01/14 00:52:26;;;;;;;12.24;11.00;;;;;;;-4.32;76.65;100401.92;465635;112;922802;-74
2022/01/14 00:53:30;;;;;;;12.28;11.09;;;;;;;-4.31;76.65;100406.28;466456;113;922724;-74
2022/01/14 00:54:33;;;;;;;12.39;11.33;;;;;;;-4.31;76.64;100407.13;465494;112;922764;-74
2022/01/14 00:56:05;;;;;;;11.36;10.36;;;;;;;-4.31;76.69;100411.60;465646;113;922808;-75
2022/01/14 00:57:00;;;;;;;12.86;11.65;;;;;;;-4.32;76.74;100416.08;458325;112;923318;-74
2022/01/14 00:59:14;;;;;;;12.44;11.27;;;;;;;-4.32;76.78;100423.21;466085;112;923062;-74
2022/01/14 01:00:21;;;;;;;12.26;11.07;;;;;;;-4.31;76.85;100422.25;465680;112;922555;-74
2022/01/14 01:01:24;;;;;;;12.42;11.27;;;;;;;-4.29;76.86;100420.29;465098;113;922986;-75
2022/01/14 01:02:28;;;;;;;12.03;11.04;;;;;;;-4.27;76.92;100421.02;465964;113;922606;-74
2022/01/14 01:03:33;;;;;;;12.93;11.80;;;;;;;-4.27;77.14;100423.69;464938;112;923550;-74
2022/01/14 01:04:39;;;;;;;14.49;11.92;;;;;;;-4.24;77.04;100418.95;465351;112;922544;-74
2022/01/14 01:05:42;;;;;;;12.67;11.64;;;;;;;-4.23;77.10;100417.13;465883;113;922698;-73
2022/01/14 01:06:48;;;;;;;12.72;11.61;;;;;;;-4.21;77.13;100407.22;465501;113;922815;-74
2022/01/14 01:08:09;;;;;;;12.65;11.55;;;;;;;-4.22;77.23;100406.37;465300;112;923086;-74
2022/01/14 01:09:11;;;;;;;11.14;10.16;;;;;;;-4.18;77.25;100398.97;465000;112;922557;-73
2022/01/14 01:10:17;;;;;;;12.32;11.22;;;;;;;-4.17;77.33;100398.00;465588;113;923180;-73
2022/01/14 01:11:26;;;;;;;12.46;11.37;;;;;;;-4.17;77.49;100392.67;466039;113;922697;-73
2022/01/14 01:12:47;;;;;;;12.62;11.53;;;;;;;-4.17;77.42;100386.50;464592;113;922824;-74
2022/01/14 01:13:42;;;;;;;;;;;;;;;-4.18;77.49;100372.34;466728;112;922160;-74
2022/01/14 01:14:49;;;;;;;13.75;12.42;;;;;;;-4.18;77.48;100374.16;464769;112;922196;-74
2022/01/14 01:15:50;;;;;;;12.05;11.13;;;;;;;-4.18;77.53;100374.16;464370;112;923513;-74
2022/01/14 01:16:54;;;;;;;13.16;12.04;;;;;;;-4.21;77.59;100370.80;465289;112;922684;-74
2022/01/14 01:17:58;;;;;;;12.43;11.31;;;;;;;-4.21;77.64;100367.29;465129;112;923008;-74
2022/01/14 01:19:01;;;;;;;11.24;10.24;;;;;;;-4.22;77.71;100369.10;465678;113;922516;-75
2022/01/14 01:20:14;;;;;;;12.90;11.88;;;;;;;-4.21;77.71;100370.80;465558;113;923137;-74
2022/01/14 01:21:18;;;;;;;12.68;11.59;;;;;;;-4.18;77.83;100372.34;465409;112;922814;-74
2022/01/14 01:22:21;;;;;;;12.07;10.98;;;;;;;-4.16;77.78;100370.41;465476;113;922841;-74
2022/01/14 01:23:30;;;;;;;11.88;10.79;;;;;;;-4.14;77.78;100373.81;464750;113;922556;-76
2022/01/14 01:24:36;;;;;;;11.54;10.52;;;;;;;-4.12;77.79;100368.33;464789;112;922605;-74
2022/01/14 01:25:45;;;;;;;12.44;11.34;;;;;;;-4.12;77.83;100368.33;466048;113;922800;-75
2022/01/14 01:26:44;;;;;;;12.68;11.58;;;;;;;-4.11;77.79;100376.20;465191;112;922509;-74
2022/01/14 01:27:49;;;;;;;12.51;11.51;;;;;;;-4.10;77.76;100358.41;465849;112;922541;-76
2022/01/14 01:29:02;;;;;;;11.99;10.98;;;;;;;-4.09;77.84;100354.79;465413;113;922881;-75
2022/01/14 01:30:13;;;;;;;13.15;11.93;;;;;;;-4.08;77.86;100359.96;465560;112;922718;-75
2022/01/14 01:31:34;;;;;;;12.56;11.45;;;;;;;-4.08;77.75;100354.64;463388;113;922491;-73
2022/01/14 01:32:11;;;;;;;12.72;11.62;;;;;;;-4.05;77.79;100350.89;463708;113;922545;-73
2022/01/14 01:33:14;;;;;;;12.58;11.48;;;;;;;-4.03;77.85;100356.95;464619;113;922564;-75
2022/01/14 01:34:21;;;;;;;11.93;10.88;;;;;;;-4.00;77.83;100354.02;465203;111;922606;-73
2022/01/14 01:35:24;;;;;;;12.57;11.51;;;;;;;-3.98;77.82;100344.09;465997;113;922709;-74
2022/01/14 01:36:28;;;;;;;13.20;12.09;;;;;;;-3.98;77.80;100347.59;466025;111;922822;-74
2022/01/14 01:37:31;;;;;;;11.81;10.78;;;;;;;-3.97;77.75;100346.60;465199;112;922428;-74
2022/01/14 01:38:34;;;;;;;11.62;10.66;;;;;;;-3.97;77.74;100341.27;465827;112;922506;-73
2022/01/14 01:39:38;;;;;;;11.78;10.59;;;;;;;-3.96;77.75;100339.46;465384;113;922573;-74
2022/01/14 01:40:46;;;;;;;13.41;12.16;;;;;;;-3.97;77.91;100337.80;465440;111;922551;-74
2022/01/14 01:41:53;;;;;;;12.82;11.62;;;;;;;-3.97;77.91;100335.95;464933;111;922582;-75
2022/01/14 01:42:59;;;;;;;12.73;11.56;;;;;;;-3.99;77.91;100321.09;465605;113;922536;-74
2022/01/14 01:44:06;;;;;;;12.82;11.72;;;;;;;-3.99;77.96;100318.43;464940;112;922514;-74
2022/01/14 01:45:11;;;;;;;12.99;11.88;;;;;;;-3.98;78.05;100320.97;465584;111;922749;-75
2022/01/14 01:46:15;;;;;;;12.14;11.05;;;;;;;-3.97;78.14;100308.50;465611;113;922542;-73
2022/01/14 01:47:22;;;;;;;12.21;11.01;;;;;;;-3.96;78.18;100311.02;465274;112;922627;-73
2022/01/14 01:48:24;;;;;;;12.59;11.43;;;;;;;-3.93;78.27;100317.92;465803;113;922821;-75
2022/01/14 01:49:31;;;;;;;12.05;10.94;;;;;;;-3.93;78.26;100310.77;465316;112;923454;-75
2022/01/14 01:50:36;;;;;;;12.43;11.36;;;;;;;-3.91;78.30;100318.61;465690;112;923019;-74
2022/01/14 01:51:40;;;;;;;13.79;12.38;;;;;;;-3.90;78.33;100314.98;471543;110;922862;-75
2022/01/14 01:52:43;;;;;;;12.94;11.84;;;;;;;-3.89;78.43;100314.86;473462;111;922485;-74
2022/01/14 01:53:48;;;;;;;12.46;11.46;;;;;;;-3.88;78.51;100313.05;472774;110;922685;-75
2022/01/14 01:54:52;;;;;;;13.07;11.92;;;;;;;-3.88;78.49;100313.05;471738;111;930314;-75
2022/01/14 01:55:56;;;;;;;14.56;13.22;;;;;;;-3.88;78.49;100311.23;472757;112;922391;-75
2022/01/14 01:57:00;;;;;;;13.69;12.43;;;;;;;-3.88;78.66;100308.56;472627;112;922682;-74
2022/01/14 01:58:03;;;;;;;14.05;12.69;;;;;;;-3.87;78.64;100306.75;473165;110;923236;-74
2022/01/14 01:59:09;;;;;;;13.04;11.95;;;;;;;-3.87;78.69;100304.09;472926;111;922958;-75
2022/01/14 02:00:16;;;;;;;12.72;11.66;;;;;;;-3.87;78.67;100294.28;472036;111;930325;-74
2022/01/14 02:01:19;;;;;;;13.14;11.99;;;;;;;-3.86;78.76;100295.13;463629;114;922531;-74
2022/01/14 02:02:23;;;;;;;14.37;13.20;;;;;;;-3.86;78.75;100297.80;456381;114;922616;-74
2022/01/14 02:03:26;;;;;;;13.20;11.98;;;;;;;-3.86;78.87;100301.27;454914;115;922863;-73
2022/01/14 02:04:30;;;;;;;13.93;12.55;;;;;;;-3.86;78.80;100295.95;453921;114;922632;-74
2022/01/14 02:05:33;;;;;;;13.92;12.71;;;;;;;-3.86;78.81;100295.95;449104;118;922558;-74
2022/01/14 02:06:39;;;;;;;13.23;12.13;;;;;;;-3.86;78.90;100295.95;453459;115;922603;-74
2022/01/14 02:07:44;;;;;;;13.31;12.08;;;;;;;-3.87;78.90;100294.28;453454;116;930342;-74
2022/01/14 02:08:48;;;;;;;12.68;11.54;;;;;;;-3.86;79.02;100292.47;453858;116;922542;-73
2022/01/14 02:09:51;;;;;;;13.74;12.61;;;;;;;-3.86;79.04;100287.95;453906;116;922801;-73
2022/01/14 02:10:54;;;;;;;14.15;12.96;;;;;;;-3.84;79.12;100295.83;453119;115;922992;-72
2022/01/14 02:11:58;;;;;;;13.61;12.49;;;;;;;-3.84;79.19;100286.02;453682;115;922577;-74
2022/01/14 02:13:01;;;;;;;13.91;12.64;;;;;;;-3.83;79.16;100290.38;453606;116;922901;-75
2022/01/14 02:14:13;;;;;;;13.45;12.19;;;;;;;-3.81;79.13;100284.93;453780;116;922556;-73
2022/01/14 02:15:14;;;;;;;13.78;12.56;;;;;;;-3.81;79.13;100280.45;452761;115;922667;-74
2022/01/14 02:16:31;;;;;;;14.08;12.76;;;;;;;-3.80;79.15;100284.77;452193;114;922529;-73
2022/01/14 02:17:53;;;;;;;13.12;12.01;;;;;;;-3.79;79.17;100278.48;452008;116;922731;-74
2022/01/14 02:22:44;;;;;;;12.87;11.77;;;;;;;-3.74;79.23;100262.09;453235;114;922641;-75
2022/01/14 02:23:55;;;;;;;13.83;12.68;;;;;;;-3.72;79.21;100264.64;452634;115;922569;-74
2022/01/14 02:25:03;;;;;;;14.01;12.81;;;;;;;-3.72;79.21;100254.83;452675;116;922763;-74
2022/01/14 02:26:02;;;;;;;12.63;11.43;;;;;;;-3.70;79.20;100257.37;453743;116;922746;-74
2022/01/14 02:27:08;;;;;;;13.51;12.32;;;;;;;-3.69;79.25;100253.73;453595;114;922594;-74
2022/01/14 02:28:13;;;;;;;13.59;12.47;;;;;;;-3.67;79.25;100249.95;453303;115;922971;-74
2022/01/14 02:29:18;;;;;;;13.98;12.69;;;;;;;-3.66;79.21;100242.80;453284;115;923151;-75
2022/01/14 02:30:23;;;;;;;12.25;11.19;;;;;;;-3.64;79.24;100236.38;453181;116;922699;-73
2022/01/14 02:31:26;;;;;;;12.24;11.27;;;;;;;-3.63;79.19;100246.03;452657;116;923446;-74
2022/01/14 02:32:29;;;;;;;12.66;11.62;;;;;;;-3.61;79.14;100232.59;453776;115;930389;-74
2022/01/14 02:33:33;;;;;;;13.04;11.83;;;;;;;-3.59;79.15;100235.97;453486;114;923056;-74
2022/01/14 02:34:39;;;;;;;13.38;12.28;;;;;;;-3.58;79.14;100230.48;454612;114;922687;-71
2022/01/14 02:35:45;;;;;;;12.19;11.19;;;;;;;-3.56;79.13;100235.69;453770;116;922582;-74
2022/01/14 02:36:49;;;;;;;13.05;11.95;;;;;;;-3.55;79.09;100230.24;453493;114;922975;-73
2022/01/14 02:37:52;;;;;;;14.19;11.99;;;;;;;-3.52;79.10;100231.78;453618;115;922880;-74
2022/01/14 02:38:56;;;;;;;12.73;11.67;;;;;;;-3.51;79.07;100231.66;453842;116;922857;-74
2022/01/14 02:39:59;;;;;;;12.23;11.17;;;;;;;-3.49;78.94;100220.87;454109;116;930382;-73
2022/01/14 02:41:02;;;;;;;13.20;12.05;;;;;;;-3.48;78.88;100222.56;453431;114;930357;-73
2022/01/14 02:42:07;;;;;;;12.58;11.63;;;;;;;-3.47;78.89;100217.08;453058;115;922591;-74
2022/01/14 02:43:13;;;;;;;12.81;11.71;;;;;;;-3.46;78.87;100217.92;453834;116;922829;-74
2022/01/14 02:44:27;;;;;;;13.17;11.95;;;;;;;-3.46;78.80;100207.26;452928;114;922973;-73
2022/01/14 02:45:32;;;;;;;11.48;10.58;;;;;;;-3.46;78.74;100205.44;452648;116;922785;-72
2022/01/14 02:46:40;;;;;;;11.62;10.64;;;;;;;-3.45;78.77;100206.28;453206;116;922482;-73
2022/01/14 02:47:42;;;;;;;12.24;11.18;;;;;;;-3.43;78.84;100193.69;453194;116;922537;-74
2022/01/14 02:48:45;;;;;;;11.26;10.36;;;;;;;-3.42;78.85;100188.19;453606;116;922489;-71
2022/01/14 02:49:48;;;;;;;12.07;11.08;;;;;;;-3.38;78.85;100183.45;453764;114;922464;-75
2022/01/14 02:51:07;;;;;;;11.39;10.46;;;;;;;-3.35;78.84;100177.84;453998;116;922376;-74
2022/01/14 02:52:04;;;;;;;12.57;11.56;;;;;;;-3.33;78.76;100177.71;454668;115;922476;-75
2022/01/14 02:54:25;;;;;;;12.81;11.54;;;;;;;-3.30;78.67;100175.61;443658;116;922982;-74
2022/01/14 02:55:30;;;;;;;12.68;11.61;;;;;;;-3.29;78.71;100176.45;470892;111;922962;-74
2022/01/14 02:56:33;;;;;;;12.54;11.51;;;;;;;-3.30;78.69;100164.94;473429;110;922979;-76
2022/01/14 02:57:36;;;;;;;14.31;12.98;;;;;;;-3.30;78.77;100162.28;473331;109;922711;-73
2022/01/14 02:58:42;;;;;;;13.32;12.22;;;;;;;-3.30;78.85;100166.77;473029;111;930409;-74
2022/01/14 02:59:47;;;;;;;13.03;11.92;;;;;;;-3.29;78.87;100152.46;473331;110;930761;-74
2022/01/14 03:00:52;;;;;;;12.58;11.37;;;;;;;-3.30;78.93;100158.77;472172;111;922516;-74
2022/01/14 03:01:57;;;;;;;13.22;12.13;;;;;;;-3.31;78.96;100147.29;472796;111;922584;-74
2022/01/14 03:03:00;;;;;;;12.28;11.29;;;;;;;-3.32;79.00;100134.09;473276;110;922956;-73
2022/01/14 03:04:04;;;;;;;12.78;11.60;;;;;;;-3.33;79.09;100133.24;473795;110;922459;-72
2022/01/14 03:05:08;;;;;;;12.97;11.93;;;;;;;-3.35;79.31;100137.86;473059;109;930462;-71
2022/01/14 03:06:14;;;;;;;13.87;12.74;;;;;;;-3.36;79.40;100139.67;472300;111;922593;-73
2022/01/14 03:07:19;;;;;;;13.46;12.32;;;;;;;-3.36;79.51;100138.83;472757;111;922599;-73
2022/01/14 03:08:23;;;;;;;13.68;12.58;;;;;;;-3.37;79.56;100134.51;472713;111;922542;-74
2022/01/14 03:09:26;;;;;;;13.36;12.19;;;;;;;-3.38;79.66;100127.48;472023;111;922948;-73
2022/01/14 03:10:30;;;;;;;12.87;11.87;;;;;;;-3.40;79.85;100122.28;473068;109;922598;-73
2022/01/14 03:11:49;;;;;;;12.77;11.73;;;;;;;-3.40;79.89;100127.61;473433;111;922613;-71
2022/01/14 03:12:52;;;;;;;13.08;11.98;;;;;;;-3.40;79.97;100122.28;472525;111;922898;-75
2022/01/14 03:13:57;;;;;;;14.61;13.18;;;;;;;-3.39;79.97;100123.13;470078;111;922627;-73
2022/01/14 03:15:01;;;;;;;13.27;12.06;;;;;;;-3.40;80.03;100114.28;470877;110;922606;-75
2022/01/14 03:16:05;;;;;;;13.27;12.08;;;;;;;-3.39;80.16;100115.13;473273;111;922997;-74
2022/01/14 03:17:08;;;;;;;12.12;11.11;;;;;;;-3.37;80.26;100115.85;473066;110;922554;-73
2022/01/14 03:18:17;;;;;;;14.01;12.84;;;;;;;-3.37;80.26;100111.36;472908;110;922604;-73
2022/01/14 03:19:22;;;;;;;13.29;12.19;;;;;;;-3.35;80.26;100103.20;472943;110;922998;-73
2022/01/14 03:20:45;;;;;;;13.41;12.33;;;;;;;-3.34;80.29;100098.72;472772;111;922514;-73
2022/01/14 03:21:40;;;;;;;13.90;12.67;;;;;;;-3.33;80.31;100097.75;469392;110;922632;-74
2022/01/14 03:22:42;;;;;;;13.63;12.49;;;;;;;-3.33;80.29;100089.75;471647;110;922611;-74
2022/01/14 03:23:48;;;;;;;12.53;11.61;;;;;;;-3.30;80.45;100097.45;472721;110;922569;-73
2022/01/14 03:25:59;;;;;;;12.92;11.81;;;;;;;-3.28;80.42;100091.02;473368;110;922664;-73
2022/01/14 03:27:02;;;;;;;13.19;12.15;;;;;;;-3.28;80.39;100091.02;472831;110;922737;-73
2022/01/14 03:28:05;;;;;;;12.25;11.24;;;;;;;-3.27;80.31;100086.53;473130;111;923091;-73
2022/01/14 03:29:08;;;;;;;13.41;12.23;;;;;;;-3.26;80.30;100082.89;473119;111;930357;-71
2022/01/14 03:30:13;;;;;;;13.22;12.12;;;;;;;-3.26;80.34;100066.90;472965;109;922649;-75
2022/01/14 03:31:16;;;;;;;12.97;11.90;;;;;;;-3.26;80.41;100065.08;473044;109;930371;-74
2022/01/14 03:32:20;;;;;;;13.78;12.73;;;;;;;-3.23;80.47;100063.94;472935;110;922676;-74
2022/01/14 03:33:23;;;;;;;12.90;11.86;;;;;;;-3.21;80.49;100053.98;473525;110;922600;-74
2022/01/14 03:34:27;;;;;;;12.68;11.60;;;;;;;-3.20;80.36;100053.86;472420;110;922509;-74
2022/01/14 03:35:30;;;;;;;14.20;12.42;;;;;;;-3.19;80.35;100057.34;473145;109;922692;-73
2022/01/14 03:36:33;;;;;;;12.78;11.68;;;;;;;-3.18;80.29;100048.36;473034;110;922533;-73
2022/01/14 03:37:37;;;;;;;13.51;12.41;;;;;;;-3.17;80.17;100048.23;473336;111;922769;-73
2022/01/14 03:38:40;;;;;;;13.46;12.24;;;;;;;-3.16;80.19;100041.08;473717;110;922495;-72
2022/01/14 03:39:44;;;;;;;13.21;12.07;;;;;;;-3.16;80.21;100038.41;473501;110;922383;-73
2022/01/14 03:40:47;;;;;;;13.44;12.34;;;;;;;-3.16;80.17;100025.92;473855;110;923000;-73
2022/01/14 03:41:50;;;;;;;12.77;11.76;;;;;;;-3.15;80.15;100026.77;473782;110;922912;-72
2022/01/14 03:42:54;;;;;;;13.62;12.52;;;;;;;-3.13;80.17;100019.45;473565;110;930822;-74
2022/01/14 03:43:57;;;;;;;14.11;13.01;;;;;;;-3.12;80.12;100019.31;472954;110;930356;-75
2022/01/14 03:45:00;;;;;;;13.14;12.09;;;;;;;-3.10;80.04;100024.52;473233;110;922607;-74
2022/01/14 03:46:04;;;;;;;12.72;11.52;;;;;;;-3.10;79.85;100012.03;473213;110;922521;-74
2022/01/14 03:47:07;;;;;;;13.54;12.44;;;;;;;-3.09;79.87;100012.88;473213;109;922651;-74
2022/01/14 03:48:10;;;;;;;12.86;11.77;;;;;;;-3.10;79.81;100012.03;472828;110;923396;-73
2022/01/14 03:49:14;;;;;;;12.89;11.87;;;;;;;-3.09;79.81;99996.88;473832;111;922686;-73
2022/01/14 03:50:17;;;;;;;13.05;11.94;;;;;;;-3.09;79.80;99997.69;473446;111;922399;-74
2022/01/14 03:51:22;;;;;;;12.76;11.69;;;;;;;-3.06;79.78;99997.42;473112;110;923405;-74
2022/01/14 03:52:26;;;;;;;12.96;11.92;;;;;;;-3.05;79.78;99996.45;467376;110;922797;-72
2022/01/14 03:53:29;;;;;;;14.04;12.91;;;;;;;-3.04;79.65;99998.14;466821;112;922642;-74
2022/01/14 03:54:32;;;;;;;13.83;12.68;;;;;;;-3.02;79.60;99987.30;466657;112;923382;-73
2022/01/14 03:55:35;;;;;;;12.59;11.53;;;;;;;-3.02;79.56;99989.97;466292;111;930415;-74
2022/01/14 03:56:39;;;;;;;14.77;13.58;;;;;;;-3.01;79.49;99983.66;466630;111;922603;-74
2022/01/14 03:57:42;;;;;;;14.44;13.20;;;;;;;-3.02;79.39;99977.48;468300;112;922604;-73
2022/01/14 03:58:46;;;;;;;14.32;13.11;;;;;;;-3.01;79.34;99984.50;468060;112;922923;-72
2022/01/14 03:59:49;;;;;;;13.23;12.08;;;;;;;-3.02;79.30;99974.81;466676;111;922883;-74
2022/01/14 04:00:53;;;;;;;14.49;13.29;;;;;;;-3.00;79.29;99964.86;467185;111;922613;-74
2022/01/14 04:01:57;;;;;;;14.11;12.90;;;;;;;-3.00;79.18;99961.34;467821;112;922771;-73
2022/01/14 04:03:00;;;;;;;13.84;12.74;;;;;;;-2.99;79.21;99971.03;467708;112;923335;-75
2022/01/14 04:04:04;;;;;;;13.58;12.35;;;;;;;-2.99;79.18;99969.21;467467;112;922609;-74
2022/01/14 04:05:08;;;;;;;13.58;12.33;;;;;;;-2.96;79.16;99970.73;467593;112;922826;-74
2022/01/14 04:06:12;;;;;;;13.17;12.17;;;;;;;-2.96;79.15;99955.58;468204;112;922359;-74
2022/01/14 04:07:15;;;;;;;13.53;12.41;;;;;;;-2.96;79.12;99963.58;451899;116;923023;-74
2022/01/14 04:08:18;;;;;;;14.23;13.01;;;;;;;-2.93;79.04;99967.80;447659;117;930201;-74
2022/01/14 04:09:21;;;;;;;14.02;12.64;;;;;;;-2.91;79.01;99962.30;448004;116;922658;-74
2022/01/14 04:10:26;;;;;;;13.23;12.06;;;;;;;-2.91;78.95;99957.80;454171;116;922509;-73
2022/01/14 04:11:30;;;;;;;13.41;12.21;;;;;;;-2.91;78.94;99959.62;458428;113;922532;-73
2022/01/14 04:14:06;;;;;;;12.34;11.29;;;;;;;-2.88;78.91;99959.36;458033;115;922741;-74
2022/01/14 04:16:06;;;;;;;14.79;13.69;;;;;;;-2.85;78.85;99951.89;449855;116;922805;-75
2022/01/14 04:17:10;;;;;;;14.21;12.86;;;;;;;-2.84;78.81;99947.41;449127;116;922672;-74
2022/01/14 04:18:16;;;;;;;14.31;13.18;;;;;;;-2.83;78.80;99957.94;450284;117;930551;-74
2022/01/14 04:19:20;;;;;;;14.41;13.20;;;;;;;-2.82;78.80;99951.62;447167;115;922991;-74
2022/01/14 04:20:24;;;;;;;14.07;12.88;;;;;;;-2.80;78.79;99951.45;449953;116;922275;-73
2022/01/14 04:21:27;;;;;;;14.91;13.64;;;;;;;-2.79;78.77;99951.31;458399;114;930327;-72
2022/01/14 04:22:30;;;;;;;13.66;12.56;;;;;;;-2.76;78.70;99950.20;458753;113;930422;-73
2022/01/14 04:23:33;;;;;;;13.82;12.62;;;;;;;-2.75;78.74;99943.85;458143;113;922677;-75
2022/01/14 04:24:37;;;;;;;14.66;13.41;;;;;;;-2.74;78.72;99940.20;458018;113;922474;-74
2022/01/14 04:25:41;;;;;;;14.61;13.39;;;;;;;-2.73;78.61;99940.06;452002;116;930460;-73
2022/01/14 04:26:46;;;;;;;14.49;13.28;;;;;;;-2.70;78.64;99933.62;447669;118;923314;-71
2022/01/14 04:27:50;;;;;;;13.56;12.46;;;;;;;-2.69;78.64;99929.94;451824;116;922617;-74
2022/01/14 04:28:54;;;;;;;14.14;12.95;;;;;;;-2.67;78.60;99930.64;451040;116;922244;-73
2022/01/14 04:29:57;;;;;;;13.18;12.07;;;;;;;-2.67;78.61;99928.81;451402;116;922508;-74
2022/01/14 04:31:01;;;;;;;13.92;12.66;;;;;;;-2.65;78.56;99920.67;451181;117;922896;-73
2022/01/14 04:32:04;;;;;;;14.65;13.34;;;;;;;-2.65;78.57;99921.52;450860;117;922474;-73
2022/01/14 04:33:09;;;;;;;14.68;13.39;;;;;;;-2.66;78.60;99914.49;450273;116;922618;-73
2022/01/14 04:34:15;;;;;;;15.28;13.96;;;;;;;-2.63;78.74;99911.52;449884;117;922598;-73
2022/01/14 04:35:18;;;;;;;13.72;12.67;;;;;;;-2.62;78.78;99915.03;451357;117;922639;-73
2022/01/14 04:36:23;;;;;;;15.03;13.73;;;;;;;-2.63;78.87;99902.66;450538;116;923575;-70
2022/01/14 04:37:26;;;;;;;13.66;12.47;;;;;;;-2.62;78.92;99910.53;449455;115;922732;-73
2022/01/14 04:38:31;;;;;;;14.43;13.24;;;;;;;-2.61;78.92;99906.04;450139;116;922644;-73
2022/01/14 04:39:34;;;;;;;14.88;13.49;;;;;;;-2.61;78.97;99908.70;449503;117;922797;-74
2022/01/14 04:40:38;;;;;;;14.73;13.53;;;;;;;-2.60;79.06;99905.06;449830;116;922871;-73
2022/01/14 04:41:41;;;;;;;14.31;13.20;;;;;;;-2.61;79.02;99909.55;450042;116;922660;-75
2022/01/14 04:42:46;;;;;;;14.73;13.53;;;;;;;-2.60;79.07;99905.06;449971;117;922513;-74
2022/01/14 04:43:49;;;;;;;14.75;13.62;;;;;;;-2.60;79.13;99910.39;450420;117;922655;-75
2022/01/14 04:44:55;;;;;;;13.84;12.70;;;;;;;-2.60;79.10;99908.57;449543;117;930657;-73
2022/01/14 04:47:16;;;;;;;15.02;13.72;;;;;;;-2.58;79.16;99908.40;450073;117;922647;-74
2022/01/14 04:48:18;;;;;;;14.49;13.27;;;;;;;-2.59;79.23;99899.55;449705;117;923413;-73
2022/01/14 04:49:21;;;;;;;14.05;12.95;;;;;;;-2.58;79.19;99903.91;449531;116;922731;-73
2022/01/14 04:50:26;;;;;;;14.34;13.20;;;;;;;-2.57;79.20;99905.59;449514;116;922666;-74
2022/01/14 04:51:29;;;;;;;14.09;12.78;;;;;;;-2.56;79.23;99893.94;450530;117;923052;-74
2022/01/14 04:52:32;;;;;;;15.56;14.23;;;;;;;-2.55;79.20;99890.28;452078;115;922767;-72
2022/01/14 04:53:36;;;;;;;13.94;12.75;;;;;;;-2.54;79.09;99894.61;472998;111;930966;-72
2022/01/14 04:54:39;;;;;;;14.65;13.46;;;;;;;-2.54;79.05;99893.80;473637;109;922546;-74
2022/01/14 04:55:43;;;;;;;15.62;14.29;;;;;;;-2.54;79.04;99888.45;473350;110;922815;-73
2022/01/14 04:56:46;;;;;;;14.87;13.54;;;;;;;-2.54;79.01;99880.45;473576;110;923229;-73
2022/01/14 04:57:51;;;;;;;13.86;12.69;;;;;;;-2.54;79.01;99878.59;472895;111;930587;-72
2022/01/14 04:58:54;;;;;;;14.11;12.94;;;;;;;-2.52;78.98;99883.80;473237;110;922798;-73
2022/01/14 04:59:57;;;;;;;15.07;13.72;;;;;;;-2.50;78.98;99881.83;473528;111;923089;-74
2022/01/14 05:01:00;;;;;;;15.35;14.16;;;;;;;-2.47;79.00;99878.00;472995;111;922932;-74
2022/01/14 05:02:05;;;;;;;15.30;13.95;;;;;;;-2.45;78.93;99878.70;473111;110;922495;-74
2022/01/14 05:03:10;;;;;;;14.95;13.74;;;;;;;-2.44;78.88;99873.23;472716;109;930588;-74
2022/01/14 05:04:13;;;;;;;14.53;13.29;;;;;;;-2.42;78.81;99889.07;473471;111;922609;-73
2022/01/14 05:05:19;;;;;;;14.47;13.24;;;;;;;-2.41;78.79;99891.59;473580;111;923145;-72
2022/01/14 05:06:23;;;;;;;15.10;13.90;;;;;;;-2.40;78.54;99893.29;473144;110;922595;-74
2022/01/14 05:07:27;;;;;;;13.96;12.75;;;;;;;-2.39;78.77;99894.13;473545;109;922670;-72
2022/01/14 05:08:36;;;;;;;14.00;12.88;;;;;;;-2.39;78.77;99886.97;473135;111;930860;-76
2022/01/14 05:09:40;;;;;;;14.78;13.49;;;;;;;-2.38;78.74;99891.32;472566;109;922517;-75
2022/01/14 05:12:06;;;;;;;15.11;13.82;;;;;;;-2.36;78.71;99883.98;463830;113;923178;-75